PWSweather.com
Personal Weather Stations
Station Observations
CARNOUSTIE
Pambride, CarnoustieGB DD7 6DY

PambrideCarnoustieGB DD7 6DY

Lat: 56.50889, Lon: -2.7051

Elevation: 105

Station Type: Oregon Scientific WMR200

www.carnoustieweather.co.uk

High Low Average
Temperature 68.4°F20.2°C 47.3°F8.5°C 57.1°F13.9°C
Dew Point 55.6°F13.1°C 45.9°F7.7°C 51.5°F10.8°C
Winds 12.7 mph 20.4 kmh 2.3 mph 3.7 kmh 6.0 mph SW9.7 kmh SW
Wind Gusts 16.1 mph25.9 kmh 2.3 mph3.7 kmh 8.0 mph12.9 kmh
Humidity 95% 59% 83%
Pressure 29.77 in1008.1 mb 29.71 in1006.1 mb -
Precipitation 0.00 in0.0 mm - -
Hour Temp Dew Point Humidity Winds Wind Gusts Pressure Precip Precip Rate Daily Precip Total
12:00 AM 50.7°F10.4°C 49.3°F9.6°C 95% 6.9 mph W11.1 kmh W 9.2 mph14.8 kmh 29.74 in1007.1 mb - 0.00 in0.0 mm 0.00 in0.0 mm
12:10 AM 50.5°F10.3°C 48.9°F9.4°C 94% 4.6 mph W7.4 kmh W 8.1 mph13.0 kmh 29.74 in1007.1 mb - 0.00 in0.0 mm 0.00 in0.0 mm
12:20 AM 50.4°F10.2°C 48.7°F9.3°C 94% 4.6 mph WSW7.4 kmh WSW 4.6 mph7.4 kmh 29.74 in1007.1 mb - 0.00 in0.0 mm 0.00 in0.0 mm
12:30 AM 50.2°F10.1°C 48.5°F9.2°C 94% 5.8 mph WSW9.3 kmh WSW 6.9 mph11.1 kmh 29.74 in1007.1 mb - 0.00 in0.0 mm 0.00 in0.0 mm
12:40 AM 50.2°F10.1°C 48.5°F9.2°C 94% 4.6 mph W7.4 kmh W 6.9 mph11.1 kmh 29.74 in1007.1 mb - 0.00 in0.0 mm 0.00 in0.0 mm
12:50 AM 50.2°F10.1°C 48.5°F9.2°C 94% 4.6 mph WSW7.4 kmh WSW 8.1 mph13.0 kmh 29.74 in1007.1 mb - 0.00 in0.0 mm 0.00 in0.0 mm
01:00 AM 50.2°F10.1°C 48.5°F9.2°C 94% 5.8 mph WSW9.3 kmh WSW 8.1 mph13.0 kmh 29.74 in1007.1 mb - 0.00 in0.0 mm 0.00 in0.0 mm
01:10 AM 50.2°F10.1°C 48.5°F9.2°C 94% 6.9 mph W11.1 kmh W 8.1 mph13.0 kmh 29.74 in1007.1 mb - 0.00 in0.0 mm 0.00 in0.0 mm
01:20 AM 50.2°F10.1°C 48.5°F9.2°C 94% 5.8 mph W9.3 kmh W 6.9 mph11.1 kmh 29.74 in1007.1 mb - 0.00 in0.0 mm 0.00 in0.0 mm
01:30 AM 50.0°F10.0°C 48.3°F9.1°C 94% 5.8 mph W9.3 kmh W 6.9 mph11.1 kmh 29.74 in1007.1 mb - 0.00 in0.0 mm 0.00 in0.0 mm
01:40 AM 49.8°F9.9°C 48.2°F9.0°C 94% 6.9 mph W11.1 kmh W 6.9 mph11.1 kmh 29.74 in1007.1 mb - 0.00 in0.0 mm 0.00 in0.0 mm
01:50 AM 49.5°F9.7°C 47.8°F8.8°C 94% 5.8 mph W9.3 kmh W 5.8 mph9.3 kmh 29.74 in1007.1 mb - 0.00 in0.0 mm 0.00 in0.0 mm
02:00 AM 49.1°F9.5°C 47.4°F8.6°C 94% 8.1 mph W13.0 kmh W 10.4 mph16.7 kmh 29.74 in1007.1 mb - 0.00 in0.0 mm 0.00 in0.0 mm
02:10 AM 48.7°F9.3°C 47.1°F8.4°C 94% 6.9 mph W11.1 kmh W 9.2 mph14.8 kmh 29.74 in1007.1 mb - 0.00 in0.0 mm 0.00 in0.0 mm
02:20 AM 48.4°F9.1°C 46.7°F8.2°C 94% 6.9 mph W11.1 kmh W 8.1 mph13.0 kmh 29.71 in1006.1 mb - 0.00 in0.0 mm 0.00 in0.0 mm
02:30 AM 48.4°F9.1°C 46.7°F8.2°C 94% 5.8 mph WNW9.3 kmh WNW 6.9 mph11.1 kmh 29.71 in1006.1 mb - 0.00 in0.0 mm 0.00 in0.0 mm
02:40 AM 48.4°F9.1°C 47.0°F8.3°C 95% 5.8 mph W9.3 kmh W 6.9 mph11.1 kmh 29.71 in1006.1 mb - 0.00 in0.0 mm 0.00 in0.0 mm
02:50 AM 48.4°F9.1°C 47.0°F8.3°C 95% 4.6 mph W7.4 kmh W 6.9 mph11.1 kmh 29.74 in1007.1 mb - 0.00 in0.0 mm 0.00 in0.0 mm
03:00 AM 48.4°F9.1°C 47.0°F8.3°C 95% 5.8 mph W9.3 kmh W 8.1 mph13.0 kmh 29.74 in1007.1 mb - 0.00 in0.0 mm 0.00 in0.0 mm
03:10 AM 48.2°F9.0°C 46.8°F8.2°C 95% 4.6 mph WSW7.4 kmh WSW 5.8 mph9.3 kmh 29.74 in1007.1 mb - 0.00 in0.0 mm 0.00 in0.0 mm
03:20 AM 48.4°F9.1°C 47.0°F8.3°C 95% 5.8 mph W9.3 kmh W 6.9 mph11.1 kmh 29.74 in1007.1 mb - 0.00 in0.0 mm 0.00 in0.0 mm
03:30 AM 48.4°F9.1°C 47.0°F8.3°C 95% 5.8 mph W9.3 kmh W 6.9 mph11.1 kmh 29.74 in1007.1 mb - 0.00 in0.0 mm 0.00 in0.0 mm
03:40 AM 48.2°F9.0°C 46.6°F8.1°C 94% 4.6 mph WSW7.4 kmh WSW 6.9 mph11.1 kmh 29.74 in1007.1 mb - 0.00 in0.0 mm 0.00 in0.0 mm
03:50 AM 48.0°F8.9°C 46.7°F8.2°C 95% 6.9 mph WSW11.1 kmh WSW 8.1 mph13.0 kmh 29.74 in1007.1 mb - 0.00 in0.0 mm 0.00 in0.0 mm
04:00 AM 47.6°F8.7°C 46.3°F7.9°C 95% 5.8 mph W9.3 kmh W 5.8 mph9.3 kmh 29.74 in1007.1 mb - 0.00 in0.0 mm 0.00 in0.0 mm
04:10 AM 47.3°F8.5°C 45.9°F7.7°C 95% 5.8 mph W9.3 kmh W 5.8 mph9.3 kmh 29.74 in1007.1 mb - 0.00 in0.0 mm 0.00 in0.0 mm
04:20 AM 47.5°F8.6°C 46.1°F7.8°C 95% 3.5 mph WNW5.6 kmh WNW 4.6 mph7.4 kmh 29.74 in1007.1 mb - 0.00 in0.0 mm 0.00 in0.0 mm
04:30 AM 47.7°F8.7°C 46.3°F7.9°C 95% 8.1 mph WNW13.0 kmh WNW 9.2 mph14.8 kmh 29.74 in1007.1 mb - 0.00 in0.0 mm 0.00 in0.0 mm
04:40 AM 48.4°F9.1°C 47.0°F8.3°C 95% 8.1 mph W13.0 kmh W 9.2 mph14.8 kmh 29.74 in1007.1 mb - 0.00 in0.0 mm 0.00 in0.0 mm
04:50 AM 48.7°F9.3°C 47.1°F8.4°C 94% 6.9 mph WSW11.1 kmh WSW 9.2 mph14.8 kmh 29.74 in1007.1 mb - 0.00 in0.0 mm 0.00 in0.0 mm
05:00 AM 48.9°F9.4°C 47.2°F8.4°C 94% 4.6 mph W7.4 kmh W 4.6 mph7.4 kmh 29.74 in1007.1 mb - 0.00 in0.0 mm 0.00 in0.0 mm
05:10 AM 49.3°F9.6°C 47.7°F8.7°C 94% 4.6 mph WSW7.4 kmh WSW 6.9 mph11.1 kmh 29.74 in1007.1 mb - 0.00 in0.0 mm 0.00 in0.0 mm
05:20 AM 49.8°F9.9°C 48.2°F9.0°C 94% 4.6 mph W7.4 kmh W 5.8 mph9.3 kmh 29.74 in1007.1 mb - 0.00 in0.0 mm 0.00 in0.0 mm
05:30 AM 50.7°F10.4°C 48.7°F9.3°C 93% 4.6 mph W7.4 kmh W 6.9 mph11.1 kmh 29.74 in1007.1 mb - 0.00 in0.0 mm 0.00 in0.0 mm
05:40 AM 51.5°F10.8°C 49.2°F9.6°C 92% 5.8 mph W9.3 kmh W 8.1 mph13.0 kmh 29.74 in1007.1 mb - 0.00 in0.0 mm 0.00 in0.0 mm
05:50 AM 51.8°F11.0°C 48.7°F9.3°C 89% 4.6 mph W7.4 kmh W 5.8 mph9.3 kmh 29.74 in1007.1 mb - 0.00 in0.0 mm 0.00 in0.0 mm
06:00 AM 52.2°F11.2°C 49.0°F9.4°C 89% 4.6 mph W7.4 kmh W 4.6 mph7.4 kmh 29.74 in1007.1 mb - 0.00 in0.0 mm 0.00 in0.0 mm
06:10 AM 53.1°F11.7°C 49.9°F9.9°C 89% 6.9 mph WSW11.1 kmh WSW 9.2 mph14.8 kmh 29.77 in1008.1 mb - 0.00 in0.0 mm 0.00 in0.0 mm
06:20 AM 53.8°F12.1°C 49.7°F9.8°C 86% 9.2 mph W14.8 kmh W 12.7 mph20.4 kmh 29.74 in1007.1 mb - 0.00 in0.0 mm 0.00 in0.0 mm
06:30 AM 54.1°F12.3°C 49.4°F9.7°C 84% 8.1 mph SW13.0 kmh SW 9.2 mph14.8 kmh 29.74 in1007.1 mb - 0.00 in0.0 mm 0.00 in0.0 mm
06:40 AM 54.5°F12.5°C 49.1°F9.5°C 82% 5.8 mph WSW9.3 kmh WSW 10.4 mph16.7 kmh 29.77 in1008.1 mb - 0.00 in0.0 mm 0.00 in0.0 mm
06:50 AM 55.2°F12.9°C 49.5°F9.7°C 81% 5.8 mph WSW9.3 kmh WSW 8.1 mph13.0 kmh 29.74 in1007.1 mb - 0.00 in0.0 mm 0.00 in0.0 mm
07:00 AM 54.7°F12.6°C 48.6°F9.2°C 80% 10.4 mph W16.7 kmh W 11.5 mph18.5 kmh 29.74 in1007.1 mb - 0.00 in0.0 mm 0.00 in0.0 mm
07:10 AM 54.8°F12.7°C 48.8°F9.3°C 80% 9.2 mph WSW14.8 kmh WSW 11.5 mph18.5 kmh 29.74 in1007.1 mb - 0.00 in0.0 mm 0.00 in0.0 mm
07:20 AM 55.5°F13.1°C 49.0°F9.4°C 79% 5.8 mph W9.3 kmh W 9.2 mph14.8 kmh 29.77 in1008.1 mb - 0.00 in0.0 mm 0.00 in0.0 mm
07:30 AM 56.4°F13.6°C 49.7°F9.8°C 78% 5.8 mph W9.3 kmh W 8.1 mph13.0 kmh 29.77 in1008.1 mb - 0.00 in0.0 mm 0.00 in0.0 mm
07:40 AM 56.8°F13.8°C 49.7°F9.8°C 77% 6.9 mph W11.1 kmh W 9.2 mph14.8 kmh 29.77 in1008.1 mb - 0.00 in0.0 mm 0.00 in0.0 mm
07:50 AM 57.2°F14.0°C 49.7°F9.8°C 76% 10.4 mph WSW16.7 kmh WSW 10.4 mph16.7 kmh 29.77 in1008.1 mb - 0.00 in0.0 mm 0.00 in0.0 mm
08:00 AM 56.8°F13.8°C 50.1°F10.1°C 78% 8.1 mph WSW13.0 kmh WSW 11.5 mph18.5 kmh 29.77 in1008.1 mb - 0.00 in0.0 mm 0.00 in0.0 mm
08:10 AM 57.2°F14.0°C 50.4°F10.2°C 78% 4.6 mph WSW7.4 kmh WSW 5.8 mph9.3 kmh 29.77 in1008.1 mb - 0.00 in0.0 mm 0.00 in0.0 mm
08:20 AM 58.0°F14.4°C 51.2°F10.7°C 78% 4.6 mph W7.4 kmh W 8.1 mph13.0 kmh 29.77 in1008.1 mb - 0.00 in0.0 mm 0.00 in0.0 mm
08:30 AM 58.5°F14.7°C 50.9°F10.5°C 76% 8.1 mph WSW13.0 kmh WSW 11.5 mph18.5 kmh 29.77 in1008.1 mb - 0.00 in0.0 mm 0.00 in0.0 mm
08:40 AM 58.7°F14.8°C 50.8°F10.4°C 75% 8.1 mph WSW13.0 kmh WSW 11.5 mph18.5 kmh 29.74 in1007.1 mb - 0.00 in0.0 mm 0.00 in0.0 mm
08:50 AM 60.7°F15.9°C 52.7°F11.5°C 75% 6.9 mph WSW11.1 kmh WSW 9.2 mph14.8 kmh 29.74 in1007.1 mb - 0.00 in0.0 mm 0.00 in0.0 mm
09:00 AM 60.8°F16.0°C 51.7°F10.9°C 72% 8.1 mph WSW13.0 kmh WSW 11.5 mph18.5 kmh 29.74 in1007.1 mb - 0.00 in0.0 mm 0.00 in0.0 mm
09:10 AM 60.5°F15.8°C 51.8°F11.0°C 73% 5.8 mph WSW9.3 kmh WSW 8.1 mph13.0 kmh 29.74 in1007.1 mb - 0.00 in0.0 mm 0.00 in0.0 mm
09:20 AM 59.7°F15.4°C 51.0°F10.6°C 73% 10.4 mph WSW16.7 kmh WSW 12.7 mph20.4 kmh 29.77 in1008.1 mb - 0.00 in0.0 mm 0.00 in0.0 mm
09:30 AM 59.4°F15.2°C 51.4°F10.8°C 75% 8.1 mph WSW13.0 kmh WSW 11.5 mph18.5 kmh 29.77 in1008.1 mb - 0.00 in0.0 mm 0.00 in0.0 mm
09:40 AM 61.0°F16.1°C 52.2°F11.2°C 73% 12.7 mph WSW20.4 kmh WSW 16.1 mph25.9 kmh 29.77 in1008.1 mb - 0.00 in0.0 mm 0.00 in0.0 mm
09:50 AM 62.2°F16.8°C 53.0°F11.7°C 72% 5.8 mph WSW9.3 kmh WSW 10.4 mph16.7 kmh 29.74 in1007.1 mb - 0.00 in0.0 mm 0.00 in0.0 mm
10:00 AM 63.3°F17.4°C 53.4°F11.9°C 70% 9.2 mph W14.8 kmh W 11.5 mph18.5 kmh 29.74 in1007.1 mb - 0.00 in0.0 mm 0.00 in0.0 mm
10:10 AM 63.5°F17.5°C 53.5°F11.9°C 70% 8.1 mph SW13.0 kmh SW 11.5 mph18.5 kmh 29.77 in1008.1 mb - 0.00 in0.0 mm 0.00 in0.0 mm
10:20 AM 63.6°F17.6°C 53.6°F12.0°C 70% 6.9 mph WSW11.1 kmh WSW 11.5 mph18.5 kmh 29.77 in1008.1 mb - 0.00 in0.0 mm 0.00 in0.0 mm
10:30 AM 63.4°F17.4°C 53.4°F11.9°C 70% 9.2 mph WSW14.8 kmh WSW 13.8 mph22.2 kmh 29.77 in1008.1 mb - 0.00 in0.0 mm 0.00 in0.0 mm
10:40 AM 63.1°F17.3°C 52.8°F11.6°C 69% 6.9 mph WSW11.1 kmh WSW 11.5 mph18.5 kmh 29.74 in1007.1 mb - 0.00 in0.0 mm 0.00 in0.0 mm
10:50 AM 62.4°F16.9°C 52.5°F11.4°C 70% 12.7 mph W20.4 kmh W 15.0 mph24.1 kmh 29.77 in1008.1 mb - 0.00 in0.0 mm 0.00 in0.0 mm
11:00 AM 62.8°F17.1°C 52.1°F11.2°C 68% 11.5 mph SW18.5 kmh SW 16.1 mph25.9 kmh 29.77 in1008.1 mb - 0.00 in0.0 mm 0.00 in0.0 mm
11:10 AM 63.9°F17.7°C 52.7°F11.5°C 67% 8.1 mph WSW13.0 kmh WSW 10.4 mph16.7 kmh 29.77 in1008.1 mb - 0.00 in0.0 mm 0.00 in0.0 mm
11:20 AM 63.7°F17.6°C 52.5°F11.4°C 67% 6.9 mph WSW11.1 kmh WSW 9.2 mph14.8 kmh 29.77 in1008.1 mb - 0.00 in0.0 mm 0.00 in0.0 mm
11:30 AM 63.1°F17.3°C 52.0°F11.1°C 67% 10.4 mph SW16.7 kmh SW 12.7 mph20.4 kmh 29.77 in1008.1 mb - 0.00 in0.0 mm 0.00 in0.0 mm
11:40 AM 63.2°F17.3°C 52.5°F11.4°C 68% 8.1 mph WSW13.0 kmh WSW 12.7 mph20.4 kmh 29.77 in1008.1 mb - 0.00 in0.0 mm 0.00 in0.0 mm
11:50 AM 63.0°F17.2°C 52.3°F11.3°C 68% 5.8 mph WSW9.3 kmh WSW 6.9 mph11.1 kmh 29.74 in1007.1 mb - 0.00 in0.0 mm 0.00 in0.0 mm
12:00 PM 63.0°F17.2°C 52.6°F11.4°C 69% 6.9 mph WSW11.1 kmh WSW 8.1 mph13.0 kmh 29.74 in1007.1 mb - 0.00 in0.0 mm 0.00 in0.0 mm
12:20 PM 63.1°F17.3°C 53.2°F11.8°C 70% 8.1 mph SW13.0 kmh SW 9.2 mph14.8 kmh 29.77 in1008.1 mb - 0.00 in0.0 mm 0.00 in0.0 mm
12:30 PM 64.1°F17.8°C 53.7°F12.1°C 69% 5.8 mph SW9.3 kmh SW 8.1 mph13.0 kmh 29.77 in1008.1 mb - 0.00 in0.0 mm 0.00 in0.0 mm
12:40 PM 65.3°F18.5°C 53.6°F12.0°C 66% 8.1 mph SW13.0 kmh SW 9.2 mph14.8 kmh 29.74 in1007.1 mb - 0.00 in0.0 mm 0.00 in0.0 mm
12:50 PM 66.6°F19.2°C 53.6°F12.0°C 63% 8.1 mph W13.0 kmh W 8.1 mph13.0 kmh 29.77 in1008.1 mb - 0.00 in0.0 mm 0.00 in0.0 mm
01:10 PM 68.1°F20.1°C 53.6°F12.0°C 60% 4.6 mph W7.4 kmh W 6.9 mph11.1 kmh 29.74 in1007.1 mb - 0.00 in0.0 mm 0.00 in0.0 mm
01:30 PM 67.4°F19.7°C 54.4°F12.4°C 63% 4.6 mph WSW7.4 kmh WSW 9.2 mph14.8 kmh 29.77 in1008.1 mb - 0.00 in0.0 mm 0.00 in0.0 mm
01:50 PM 67.6°F19.8°C 53.3°F11.8°C 60% 6.9 mph WSW11.1 kmh WSW 8.1 mph13.0 kmh 29.74 in1007.1 mb - 0.00 in0.0 mm 0.00 in0.0 mm
02:00 PM 68.4°F20.2°C 53.9°F12.2°C 60% 8.1 mph WSW13.0 kmh WSW 10.4 mph16.7 kmh 29.74 in1007.1 mb - 0.00 in0.0 mm 0.00 in0.0 mm
02:10 PM 67.1°F19.5°C 52.3°F11.3°C 59% 5.8 mph WSW9.3 kmh WSW 8.1 mph13.0 kmh 29.74 in1007.1 mb - 0.00 in0.0 mm 0.00 in0.0 mm
02:20 PM 66.2°F19.0°C 51.5°F10.8°C 59% 6.9 mph SW11.1 kmh SW 8.1 mph13.0 kmh 29.71 in1006.1 mb - 0.00 in0.0 mm 0.00 in0.0 mm
02:30 PM 65.5°F18.6°C 52.1°F11.2°C 62% 4.6 mph WSW7.4 kmh WSW 9.2 mph14.8 kmh 29.71 in1006.1 mb - 0.00 in0.0 mm 0.00 in0.0 mm
02:40 PM 64.2°F17.9°C 51.4°F10.8°C 63% 4.6 mph SW7.4 kmh SW 6.9 mph11.1 kmh 29.71 in1006.1 mb - 0.00 in0.0 mm 0.00 in0.0 mm
02:50 PM 63.5°F17.5°C 51.1°F10.6°C 64% 4.6 mph WSW7.4 kmh WSW 8.1 mph13.0 kmh 29.71 in1006.1 mb - 0.00 in0.0 mm 0.00 in0.0 mm
03:00 PM 64.0°F17.8°C 52.4°F11.3°C 66% 5.8 mph SW9.3 kmh SW 8.1 mph13.0 kmh 29.71 in1006.1 mb - 0.00 in0.0 mm 0.00 in0.0 mm
03:10 PM 64.5°F18.1°C 52.9°F11.6°C 66% 4.6 mph S7.4 kmh S 5.8 mph9.3 kmh 29.74 in1007.1 mb - 0.00 in0.0 mm 0.00 in0.0 mm
03:20 PM 63.3°F17.4°C 52.6°F11.4°C 68% 4.6 mph SSW7.4 kmh SSW 4.6 mph7.4 kmh 29.74 in1007.1 mb - 0.00 in0.0 mm 0.00 in0.0 mm
03:30 PM 63.1°F17.3°C 53.2°F11.8°C 70% 4.6 mph S7.4 kmh S 5.8 mph9.3 kmh 29.74 in1007.1 mb - 0.00 in0.0 mm 0.00 in0.0 mm
03:40 PM 63.1°F17.3°C 53.1°F11.7°C 70% 4.6 mph SSE7.4 kmh SSE 4.6 mph7.4 kmh 29.71 in1006.1 mb - 0.00 in0.0 mm 0.00 in0.0 mm
03:50 PM 62.4°F16.9°C 53.3°F11.8°C 72% 3.5 mph S5.6 kmh S 5.8 mph9.3 kmh 29.74 in1007.1 mb - 0.00 in0.0 mm 0.00 in0.0 mm
04:00 PM 61.0°F16.1°C 52.3°F11.3°C 73% 3.5 mph SSE5.6 kmh SSE 4.6 mph7.4 kmh 29.74 in1007.1 mb - 0.00 in0.0 mm 0.00 in0.0 mm
04:10 PM 59.9°F15.5°C 52.7°F11.5°C 77% 6.9 mph SSE11.1 kmh SSE 9.2 mph14.8 kmh 29.74 in1007.1 mb - 0.00 in0.0 mm 0.00 in0.0 mm
04:20 PM 59.5°F15.3°C 52.7°F11.5°C 78% 3.5 mph S5.6 kmh S 6.9 mph11.1 kmh 29.71 in1006.1 mb - 0.00 in0.0 mm 0.00 in0.0 mm
04:30 PM 59.4°F15.2°C 52.8°F11.6°C 79% 4.6 mph S7.4 kmh S 6.9 mph11.1 kmh 29.71 in1006.1 mb - 0.00 in0.0 mm 0.00 in0.0 mm
04:40 PM 59.0°F15.0°C 52.8°F11.6°C 80% 6.9 mph SSE11.1 kmh SSE 10.4 mph16.7 kmh 29.74 in1007.1 mb - 0.00 in0.0 mm 0.00 in0.0 mm
04:50 PM 58.8°F14.9°C 53.0°F11.7°C 81% 5.8 mph SE9.3 kmh SE 9.2 mph14.8 kmh 29.71 in1006.1 mb - 0.00 in0.0 mm 0.00 in0.0 mm
05:00 PM 58.8°F14.9°C 53.3°F11.8°C 82% 5.8 mph S9.3 kmh S 8.1 mph13.0 kmh 29.71 in1006.1 mb - 0.00 in0.0 mm 0.00 in0.0 mm
05:10 PM 59.2°F15.1°C 53.7°F12.1°C 82% 4.6 mph S7.4 kmh S 6.9 mph11.1 kmh 29.74 in1007.1 mb - 0.00 in0.0 mm 0.00 in0.0 mm
05:20 PM 58.9°F14.9°C 53.0°F11.7°C 81% 4.6 mph S7.4 kmh S 8.1 mph13.0 kmh 29.74 in1007.1 mb - 0.00 in0.0 mm 0.00 in0.0 mm
05:30 PM 59.0°F15.0°C 53.2°F11.8°C 81% 3.5 mph S5.6 kmh S 6.9 mph11.1 kmh 29.74 in1007.1 mb - 0.00 in0.0 mm 0.00 in0.0 mm
05:40 PM 59.2°F15.1°C 53.4°F11.9°C 81% 4.6 mph S7.4 kmh S 6.9 mph11.1 kmh 29.74 in1007.1 mb - 0.00 in0.0 mm 0.00 in0.0 mm
05:50 PM 59.2°F15.1°C 53.4°F11.9°C 81% 4.6 mph SSW7.4 kmh SSW 4.6 mph7.4 kmh 29.74 in1007.1 mb - 0.00 in0.0 mm 0.00 in0.0 mm
06:00 PM 59.2°F15.1°C 53.7°F12.1°C 82% 6.9 mph SW11.1 kmh SW 8.1 mph13.0 kmh 29.74 in1007.1 mb - 0.00 in0.0 mm 0.00 in0.0 mm
06:10 PM 59.1°F15.1°C 53.9°F12.2°C 83% 4.6 mph SSW7.4 kmh SSW 6.9 mph11.1 kmh 29.77 in1008.1 mb - 0.00 in0.0 mm 0.00 in0.0 mm
06:20 PM 59.2°F15.1°C 54.0°F12.2°C 83% 4.6 mph SW7.4 kmh SW 6.9 mph11.1 kmh 29.74 in1007.1 mb - 0.00 in0.0 mm 0.00 in0.0 mm
06:30 PM 58.8°F14.9°C 54.0°F12.2°C 84% 5.8 mph SW9.3 kmh SW 8.1 mph13.0 kmh 29.74 in1007.1 mb - 0.00 in0.0 mm 0.00 in0.0 mm
06:40 PM 59.0°F15.0°C 54.2°F12.3°C 84% 4.6 mph SSW7.4 kmh SSW 5.8 mph9.3 kmh 29.74 in1007.1 mb - 0.00 in0.0 mm 0.00 in0.0 mm
06:50 PM 58.8°F14.9°C 54.3°F12.4°C 85% 4.6 mph S7.4 kmh S 6.9 mph11.1 kmh 29.74 in1007.1 mb - 0.00 in0.0 mm 0.00 in0.0 mm
07:00 PM 58.5°F14.7°C 54.3°F12.4°C 86% 5.8 mph SSW9.3 kmh SSW 8.1 mph13.0 kmh 29.74 in1007.1 mb - 0.00 in0.0 mm 0.00 in0.0 mm
07:10 PM 58.3°F14.6°C 54.4°F12.4°C 87% 5.8 mph S9.3 kmh S 8.1 mph13.0 kmh 29.74 in1007.1 mb - 0.00 in0.0 mm 0.00 in0.0 mm
07:20 PM 58.1°F14.5°C 54.6°F12.6°C 88% 4.6 mph SSW7.4 kmh SSW 5.8 mph9.3 kmh 29.74 in1007.1 mb - 0.00 in0.0 mm 0.00 in0.0 mm
07:30 PM 57.9°F14.4°C 54.4°F12.4°C 88% 5.8 mph SSW9.3 kmh SSW 9.2 mph14.8 kmh 29.74 in1007.1 mb - 0.00 in0.0 mm 0.00 in0.0 mm
07:40 PM 57.9°F14.4°C 54.7°F12.6°C 89% 3.5 mph S5.6 kmh S 6.9 mph11.1 kmh 29.74 in1007.1 mb - 0.00 in0.0 mm 0.00 in0.0 mm
07:50 PM 57.9°F14.4°C 54.7°F12.6°C 89% 3.5 mph S5.6 kmh S 4.6 mph7.4 kmh 29.74 in1007.1 mb - 0.00 in0.0 mm 0.00 in0.0 mm
08:00 PM 57.6°F14.2°C 54.3°F12.4°C 89% 5.8 mph SSW9.3 kmh SSW 6.9 mph11.1 kmh 29.74 in1007.1 mb - 0.00 in0.0 mm 0.00 in0.0 mm
08:10 PM 57.7°F14.3°C 54.5°F12.5°C 89% 3.5 mph S5.6 kmh S 3.5 mph5.6 kmh 29.74 in1007.1 mb - 0.00 in0.0 mm 0.00 in0.0 mm
08:20 PM 57.6°F14.2°C 54.3°F12.4°C 89% 3.5 mph S5.6 kmh S 4.6 mph7.4 kmh 29.74 in1007.1 mb - 0.00 in0.0 mm 0.00 in0.0 mm
08:30 PM 57.2°F14.0°C 54.3°F12.4°C 90% 3.5 mph SSW5.6 kmh SSW 5.8 mph9.3 kmh 29.74 in1007.1 mb - 0.00 in0.0 mm 0.00 in0.0 mm
08:40 PM 56.8°F13.8°C 54.2°F12.3°C 91% 3.5 mph S5.6 kmh S 4.6 mph7.4 kmh 29.74 in1007.1 mb - 0.00 in0.0 mm 0.00 in0.0 mm
08:50 PM 56.8°F13.8°C 54.2°F12.3°C 91% 3.5 mph S5.6 kmh S 6.9 mph11.1 kmh 29.74 in1007.1 mb - 0.00 in0.0 mm 0.00 in0.0 mm
09:00 PM 56.8°F13.8°C 54.2°F12.3°C 91% 3.5 mph SSE5.6 kmh SSE 5.8 mph9.3 kmh 29.74 in1007.1 mb - 0.00 in0.0 mm 0.00 in0.0 mm
09:10 PM 56.8°F13.8°C 54.2°F12.3°C 91% 2.3 mph S3.7 kmh S 3.5 mph5.6 kmh 29.74 in1007.1 mb - 0.00 in0.0 mm 0.00 in0.0 mm
09:20 PM 56.7°F13.7°C 54.1°F12.3°C 91% 2.3 mph S3.7 kmh S 3.5 mph5.6 kmh 29.74 in1007.1 mb - 0.00 in0.0 mm 0.00 in0.0 mm
09:30 PM 56.7°F13.7°C 54.1°F12.3°C 91% 2.3 mph SW3.7 kmh SW 2.3 mph3.7 kmh 29.74 in1007.1 mb - 0.00 in0.0 mm 0.00 in0.0 mm
09:40 PM 56.8°F13.8°C 54.5°F12.5°C 92% 3.5 mph SW5.6 kmh SW 6.9 mph11.1 kmh 29.74 in1007.1 mb - 0.00 in0.0 mm 0.00 in0.0 mm
09:50 PM 57.2°F14.0°C 54.9°F12.7°C 92% 4.6 mph SW7.4 kmh SW 5.8 mph9.3 kmh 29.74 in1007.1 mb - 0.00 in0.0 mm 0.00 in0.0 mm
10:00 PM 57.6°F14.2°C 55.6°F13.1°C 93% 3.5 mph SSW5.6 kmh SSW 5.8 mph9.3 kmh 29.74 in1007.1 mb - 0.00 in0.0 mm 0.00 in0.0 mm
10:10 PM 57.6°F14.2°C 55.6°F13.1°C 93% 2.3 mph SSW3.7 kmh SSW 5.8 mph9.3 kmh 29.71 in1006.1 mb - 0.00 in0.0 mm 0.00 in0.0 mm
10:20 PM 57.6°F14.2°C 55.6°F13.1°C 93% 3.5 mph W5.6 kmh W 3.5 mph5.6 kmh 29.74 in1007.1 mb - 0.00 in0.0 mm 0.00 in0.0 mm
10:30 PM 57.6°F14.2°C 55.6°F13.1°C 93% 3.5 mph WSW5.6 kmh WSW 4.6 mph7.4 kmh 29.74 in1007.1 mb - 0.00 in0.0 mm 0.00 in0.0 mm
10:40 PM 57.4°F14.1°C 55.4°F13.0°C 93% 3.5 mph WSW5.6 kmh WSW 9.2 mph14.8 kmh 29.71 in1006.1 mb - 0.00 in0.0 mm 0.00 in0.0 mm
10:50 PM 57.2°F14.0°C 55.2°F12.9°C 93% 6.9 mph WSW11.1 kmh WSW 9.2 mph14.8 kmh 29.74 in1007.1 mb - 0.00 in0.0 mm 0.00 in0.0 mm
11:00 PM 57.2°F14.0°C 54.9°F12.7°C 92% 4.6 mph WSW7.4 kmh WSW 8.1 mph13.0 kmh 29.74 in1007.1 mb - 0.00 in0.0 mm 0.00 in0.0 mm
11:10 PM 56.9°F13.8°C 54.6°F12.6°C 92% 3.5 mph W5.6 kmh W 5.8 mph9.3 kmh 29.71 in1006.1 mb - 0.00 in0.0 mm 0.00 in0.0 mm
11:20 PM 56.8°F13.8°C 54.5°F12.5°C 92% 3.5 mph W5.6 kmh W 4.6 mph7.4 kmh 29.71 in1006.1 mb - 0.00 in0.0 mm 0.00 in0.0 mm
11:30 PM 56.7°F13.7°C 54.4°F12.4°C 92% 4.6 mph WSW7.4 kmh WSW 5.8 mph9.3 kmh 29.71 in1006.1 mb - 0.00 in0.0 mm 0.00 in0.0 mm
11:40 PM 56.5°F13.6°C 54.2°F12.3°C 92% 6.9 mph WSW11.1 kmh WSW 8.1 mph13.0 kmh 29.71 in1006.1 mb - 0.00 in0.0 mm 0.00 in0.0 mm
11:50 PM 56.5°F13.6°C 54.2°F12.3°C 92% 9.2 mph WSW14.8 kmh WSW 10.4 mph16.7 kmh 29.71 in1006.1 mb - 0.00 in0.0 mm 0.00 in0.0 mm